createdAt,value
2018-09-08T00:00:53.336Z,13.80
2018-09-08T00:03:25.544Z,13.70
2018-09-08T00:05:54.417Z,13.70
2018-09-08T00:08:34.658Z,13.70
2018-09-08T00:11:03.403Z,13.60
2018-09-08T00:13:35.472Z,13.40
2018-09-08T00:16:09.562Z,13.40
2018-09-08T00:18:47.463Z,13.20
2018-09-08T00:21:21.264Z,13.10
2018-09-08T00:23:58.155Z,13.00
2018-09-08T00:26:32.111Z,13.00
2018-09-08T00:29:09.803Z,13.00
2018-09-08T00:31:38.590Z,13.00
2018-09-08T00:34:11.562Z,13.10
2018-09-08T00:36:40.390Z,12.90
2018-09-08T00:39:13.342Z,12.90
2018-09-08T00:41:42.212Z,12.90
2018-09-08T00:44:14.290Z,12.80
2018-09-08T00:46:43.250Z,12.80
2018-09-08T00:49:15.182Z,12.70
2018-09-08T00:51:44.002Z,12.60
2018-09-08T00:54:16.000Z,12.60
2018-09-08T00:56:44.822Z,12.50
2018-09-08T00:59:17.843Z,12.50
2018-09-08T01:01:46.798Z,12.50
2018-09-08T01:04:19.577Z,12.40
2018-09-08T01:06:48.967Z,12.30
2018-09-08T01:09:36.747Z,12.30
2018-09-08T01:12:05.756Z,12.20
2018-09-08T01:14:42.290Z,12.10
2018-09-08T01:17:11.167Z,12.00
2018-09-08T01:19:43.071Z,12.00
2018-09-08T01:22:12.382Z,11.90
2018-09-08T01:24:45.749Z,11.90
2018-09-08T01:27:14.673Z,11.90
2018-09-08T01:29:46.673Z,11.80
2018-09-08T01:32:15.562Z,11.80
2018-09-08T01:34:47.573Z,11.80
2018-09-08T01:37:17.050Z,11.70
2018-09-08T01:39:49.321Z,11.70
2018-09-08T01:42:18.084Z,11.70
2018-09-08T01:44:50.125Z,11.70
2018-09-08T01:47:18.846Z,11.70
2018-09-08T01:49:51.074Z,11.70
2018-09-08T01:52:19.864Z,11.70
2018-09-08T01:54:53.909Z,11.70
2018-09-08T01:57:22.746Z,11.80
2018-09-08T01:59:54.737Z,11.90
2018-09-08T02:02:24.314Z,11.80
2018-09-08T02:04:57.362Z,11.90
2018-09-08T02:07:26.056Z,11.80
2018-09-08T02:10:01.771Z,11.80
2018-09-08T02:12:30.588Z,11.80
2018-09-08T02:15:03.640Z,11.70
2018-09-08T02:17:33.645Z,11.70
2018-09-08T02:20:05.437Z,11.70
2018-09-08T02:22:34.402Z,11.60
2018-09-08T02:25:06.304Z,11.60
2018-09-08T02:27:35.323Z,11.60
2018-09-08T02:30:07.163Z,11.70
2018-09-08T02:32:36.092Z,11.70
2018-09-08T02:35:09.969Z,11.70
2018-09-08T02:37:38.811Z,11.60
2018-09-08T02:40:11.649Z,11.60
2018-09-08T02:42:40.398Z,11.60
2018-09-08T02:45:13.425Z,11.60
2018-09-08T02:47:42.221Z,11.60
2018-09-08T02:50:25.120Z,11.60
2018-09-08T02:52:52.723Z,11.60
2018-09-08T02:55:20.199Z,11.60
2018-09-08T02:57:51.901Z,11.60
2018-09-08T03:00:19.403Z,11.60
2018-09-08T03:02:47.030Z,11.60
2018-09-08T03:05:19.613Z,11.60
2018-09-08T03:07:47.321Z,11.70
2018-09-08T03:10:23.358Z,11.70
2018-09-08T03:12:50.871Z,11.70
2018-09-08T03:15:18.358Z,11.60
2018-09-08T03:17:49.237Z,11.70
2018-09-08T03:20:16.738Z,11.60
2018-09-08T03:22:44.274Z,11.60
2018-09-08T03:25:15.855Z,11.60
2018-09-08T03:27:43.433Z,11.60
2018-09-08T03:30:10.990Z,11.60
2018-09-08T03:32:42.680Z,11.50
2018-09-08T03:35:10.185Z,11.50
2018-09-08T03:37:37.702Z,11.60
2018-09-08T03:40:08.541Z,11.50
2018-09-08T03:42:36.004Z,11.50
2018-09-08T03:45:03.546Z,11.50
2018-09-08T03:47:34.453Z,11.50
2018-09-08T03:50:02.990Z,11.50
2018-09-08T03:52:30.503Z,11.40
2018-09-08T03:55:06.118Z,11.30
2018-09-08T03:57:33.701Z,11.30
2018-09-08T04:00:05.774Z,11.20
2018-09-08T04:02:33.410Z,11.30
2018-09-08T04:05:02.164Z,11.10
2018-09-08T04:07:34.404Z,11.10
2018-09-08T04:10:03.388Z,11.00
2018-09-08T04:12:39.704Z,11.00
2018-09-08T04:15:08.438Z,10.90
2018-09-08T04:17:40.606Z,10.90
2018-09-08T04:20:09.906Z,10.80
2018-09-08T04:22:42.409Z,10.70
2018-09-08T04:25:11.213Z,10.60
2018-09-08T04:27:43.349Z,10.50
2018-09-08T04:30:12.221Z,10.40
2018-09-08T04:32:45.948Z,10.40
2018-09-08T04:35:14.696Z,10.30
2018-09-08T04:37:47.724Z,10.30
2018-09-08T04:40:16.560Z,10.20
2018-09-08T04:42:48.634Z,10.20
2018-09-08T04:45:17.466Z,10.10
2018-09-08T04:47:49.543Z,10.10
2018-09-08T04:50:18.346Z,10.10
2018-09-08T04:52:51.355Z,10.10
2018-09-08T04:55:20.114Z,10.10
2018-09-08T04:57:52.304Z,10.10
2018-09-08T05:00:21.403Z,10.10
2018-09-08T05:02:53.960Z,10.10
2018-09-08T05:05:22.662Z,10.10
2018-09-08T05:07:55.892Z,10.10
2018-09-08T05:10:24.606Z,10.10
2018-09-08T05:13:00.338Z,10.10
2018-09-08T05:15:29.050Z,10.20
2018-09-08T05:18:02.087Z,10.20
2018-09-08T05:20:30.753Z,10.20
2018-09-08T05:23:03.894Z,10.20
2018-09-08T05:25:32.615Z,10.30
2018-09-08T05:28:04.839Z,10.40
2018-09-08T05:30:33.532Z,10.50
2018-09-08T05:33:05.648Z,10.60
2018-09-08T05:35:35.040Z,10.60
2018-09-08T05:38:08.938Z,10.80
2018-09-08T05:40:37.999Z,11.00
2018-09-08T05:43:10.944Z,11.20
2018-09-08T05:45:39.753Z,11.30
2018-09-08T05:48:12.814Z,11.30
2018-09-08T05:50:42.583Z,11.30
2018-09-08T05:53:14.545Z,11.40
2018-09-08T05:55:43.273Z,11.40
2018-09-08T05:58:15.347Z,11.50
2018-09-08T06:00:44.125Z,11.50
2018-09-08T06:03:16.286Z,11.60
2018-09-08T06:05:45.092Z,11.70
2018-09-08T06:08:18.058Z,12.00
2018-09-08T06:10:47.307Z,12.10
2018-09-08T06:13:23.535Z,12.40
2018-09-08T06:15:52.413Z,12.50
2018-09-08T06:18:28.402Z,12.70
2018-09-08T06:20:57.167Z,12.90
2018-09-08T06:23:29.742Z,13.00
2018-09-08T06:25:58.490Z,13.10
2018-09-08T06:28:30.840Z,13.20
2018-09-08T06:30:59.664Z,13.30
2018-09-08T06:33:31.549Z,13.40
2018-09-08T06:36:00.362Z,13.50
2018-09-08T06:38:32.402Z,13.60
2018-09-08T06:41:01.177Z,13.70
2018-09-08T06:43:33.365Z,13.90
2018-09-08T06:46:02.291Z,14.00
2018-09-08T06:48:38.817Z,14.10
2018-09-08T06:51:08.062Z,14.30
2018-09-08T06:53:40.614Z,14.40
2018-09-08T06:56:09.480Z,14.60
2018-09-08T06:58:41.509Z,14.80
2018-09-08T07:01:10.653Z,15.10
2018-09-08T07:03:44.940Z,15.30
2018-09-08T07:06:13.804Z,15.50
2018-09-08T07:08:45.899Z,15.80
2018-09-08T07:11:14.934Z,15.90
2018-09-08T07:13:54.058Z,16.10
2018-09-08T07:16:28.915Z,16.30
2018-09-08T07:19:02.123Z,16.60
2018-09-08T07:21:31.026Z,16.70
2018-09-08T07:24:03.887Z,16.80
2018-09-08T07:26:32.635Z,16.90
2018-09-08T07:29:08.358Z,17.10
2018-09-08T07:31:36.969Z,17.10
2018-09-08T07:34:11.051Z,17.40
2018-09-08T07:36:39.769Z,17.50
2018-09-08T07:39:17.402Z,17.70
2018-09-08T07:41:53.429Z,17.70
2018-09-08T07:44:25.524Z,17.80
2018-09-08T07:46:54.102Z,17.80
2018-09-08T07:49:22.660Z,18.10
2018-09-08T07:51:55.905Z,18.40
2018-09-08T07:54:24.540Z,18.50
2018-09-08T07:56:56.780Z,18.80
2018-09-08T07:59:25.811Z,18.90
2018-09-08T08:01:57.644Z,19.00
2018-09-08T08:04:26.542Z,19.10
2018-09-08T08:06:59.450Z,19.20
2018-09-08T08:09:28.341Z,19.20
2018-09-08T08:12:00.347Z,19.60
2018-09-08T08:14:32.331Z,19.60
2018-09-08T08:17:04.862Z,20.00
2018-09-08T08:19:34.249Z,19.90
2018-09-08T08:22:07.649Z,20.10
2018-09-08T08:24:36.542Z,20.10
2018-09-08T08:27:08.407Z,20.30
2018-09-08T08:29:37.215Z,20.40
2018-09-08T08:32:09.384Z,20.50
2018-09-08T08:34:38.309Z,20.20
2018-09-08T08:37:11.192Z,20.50
2018-09-08T08:39:40.071Z,20.60
2018-09-08T08:42:12.989Z,20.80
2018-09-08T08:44:41.741Z,20.80
2018-09-08T08:47:13.810Z,20.80
2018-09-08T08:49:42.521Z,21.40
2018-09-08T08:52:25.514Z,21.70
2018-09-08T08:54:55.354Z,21.90
2018-09-08T08:57:28.209Z,21.80
2018-09-08T08:59:56.925Z,21.50
2018-09-08T09:02:29.988Z,21.70
2018-09-08T09:04:58.889Z,21.50
2018-09-08T09:07:30.842Z,21.80
2018-09-08T09:09:59.506Z,22.00
2018-09-08T09:12:31.805Z,21.90
2018-09-08T09:15:04.942Z,22.20
2018-09-08T09:17:38.020Z,22.30
2018-09-08T09:20:19.030Z,22.00
2018-09-08T09:23:02.428Z,21.90
2018-09-08T09:25:31.093Z,22.00
2018-09-08T09:28:03.342Z,22.00
2018-09-08T09:30:31.988Z,21.80
2018-09-08T09:33:00.512Z,22.30
2018-09-08T09:35:32.961Z,22.40
2018-09-08T09:38:02.260Z,22.50
2018-09-08T09:40:34.651Z,22.60
2018-09-08T09:43:03.464Z,22.40
2018-09-08T09:45:35.482Z,21.70
2018-09-08T09:48:04.201Z,21.40
2018-09-08T09:50:36.368Z,21.30
2018-09-08T09:53:05.130Z,21.50
2018-09-08T09:55:38.178Z,21.50
2018-09-08T09:58:06.743Z,22.10
2018-09-08T10:00:43.614Z,22.00
2018-09-08T10:03:12.453Z,22.20
2018-09-08T10:05:44.467Z,22.90
2018-09-08T10:08:13.164Z,22.90
2018-09-08T10:10:47.573Z,22.70
2018-09-08T10:13:16.416Z,23.00
2018-09-08T10:15:53.529Z,23.70
2018-09-08T10:18:22.359Z,23.70
2018-09-08T10:20:56.226Z,23.60
2018-09-08T10:23:25.126Z,23.60
2018-09-08T10:25:58.996Z,23.50
2018-09-08T10:28:27.896Z,23.80
2018-09-08T10:31:00.200Z,24.30
2018-09-08T10:33:29.223Z,24.30
2018-09-08T10:36:01.598Z,24.70
2018-09-08T10:38:30.951Z,25.30
2018-09-08T10:41:04.869Z,24.60
2018-09-08T10:43:33.833Z,23.50
2018-09-08T10:46:06.943Z,23.60
2018-09-08T10:48:35.917Z,23.80
2018-09-08T10:51:24.512Z,23.40
2018-09-08T10:54:00.916Z,23.70
2018-09-08T10:56:29.645Z,24.00
2018-09-08T10:59:01.838Z,24.30
2018-09-08T11:01:31.018Z,24.80
2018-09-08T11:04:03.599Z,25.10
2018-09-08T11:06:33.497Z,24.90
2018-09-08T11:09:06.325Z,24.80
2018-09-08T11:11:35.998Z,25.00
2018-09-08T11:14:08.914Z,25.50
2018-09-08T11:16:40.960Z,25.60
2018-09-08T11:19:13.521Z,25.60
2018-09-08T11:21:43.326Z,25.80
2018-09-08T11:24:16.233Z,25.60
2018-09-08T11:26:45.412Z,25.20
2018-09-08T11:29:18.814Z,25.70
2018-09-08T11:31:48.497Z,26.20
2018-09-08T11:34:20.634Z,26.50
2018-09-08T11:36:49.335Z,25.90
2018-09-08T11:39:22.524Z,25.80
2018-09-08T11:41:51.572Z,26.20
2018-09-08T11:44:24.237Z,25.30
2018-09-08T11:46:52.980Z,25.20
2018-09-08T11:49:26.140Z,25.30
2018-09-08T11:51:54.800Z,25.40
2018-09-08T11:54:26.933Z,24.70
2018-09-08T11:56:56.063Z,24.80
2018-09-08T11:59:27.691Z,24.90
2018-09-08T12:01:57.372Z,25.10
2018-09-08T12:04:29.698Z,25.00
2018-09-08T12:06:58.687Z,25.00
2018-09-08T12:09:30.380Z,25.00
2018-09-08T12:11:59.037Z,24.60
2018-09-08T12:14:32.220Z,24.50
2018-09-08T12:17:04.263Z,25.00
2018-09-08T12:19:35.813Z,24.80
2018-09-08T12:22:04.592Z,24.90
2018-09-08T12:24:36.933Z,25.60
2018-09-08T12:27:05.899Z,26.40
2018-09-08T12:29:37.554Z,26.50
2018-09-08T12:32:06.497Z,26.20
2018-09-08T12:34:38.419Z,25.30
2018-09-08T12:37:07.272Z,25.20
2018-09-08T12:39:40.215Z,25.10
2018-09-08T12:42:08.947Z,25.40
2018-09-08T12:44:42.076Z,25.00
2018-09-08T12:47:10.812Z,24.70
2018-09-08T12:49:42.879Z,25.00
2018-09-08T12:52:11.583Z,24.70
2018-09-08T12:54:43.810Z,24.60
2018-09-08T12:57:12.455Z,24.10
2018-09-08T12:59:44.600Z,24.20
2018-09-08T13:02:13.256Z,24.90
2018-09-08T13:04:45.633Z,25.80
2018-09-08T13:07:14.532Z,25.80
2018-09-08T13:09:47.311Z,25.80
2018-09-08T13:12:16.114Z,25.80
2018-09-08T13:14:49.109Z,25.20
2018-09-08T13:17:20.937Z,24.80
2018-09-08T13:19:52.706Z,24.30
2018-09-08T13:22:21.412Z,24.50
2018-09-08T13:24:53.561Z,24.20
2018-09-08T13:27:23.239Z,24.20
2018-09-08T13:29:56.260Z,24.40
2018-09-08T13:32:24.918Z,24.50
2018-09-08T13:34:58.072Z,24.40
2018-09-08T13:37:26.672Z,24.70
2018-09-08T13:39:58.941Z,24.90
2018-09-08T13:42:27.893Z,25.10
2018-09-08T13:45:00.658Z,25.70
2018-09-08T13:47:29.431Z,25.30
2018-09-08T13:50:01.614Z,24.40
2018-09-08T13:52:30.322Z,24.40
2018-09-08T13:55:07.000Z,24.70
2018-09-08T13:57:35.713Z,24.50
2018-09-08T14:00:07.848Z,23.90
2018-09-08T14:02:36.802Z,24.10
2018-09-08T14:05:08.697Z,23.90
2018-09-08T14:07:41.513Z,24.00
2018-09-08T14:10:14.187Z,24.00
2018-09-08T14:12:42.818Z,23.70
2018-09-08T14:15:15.108Z,23.70
2018-09-08T14:17:46.811Z,23.70
2018-09-08T14:20:18.678Z,23.70
2018-09-08T14:22:47.376Z,23.80
2018-09-08T14:25:19.526Z,23.80
2018-09-08T14:27:48.084Z,23.30
2018-09-08T14:30:16.731Z,23.60
2018-09-08T14:32:48.994Z,23.60
2018-09-08T14:35:17.584Z,23.50
2018-09-08T14:37:49.925Z,23.20
2018-09-08T14:40:19.179Z,22.90
2018-09-08T14:42:50.829Z,22.90
2018-09-08T14:45:19.576Z,22.90
2018-09-08T14:47:51.705Z,22.70
2018-09-08T14:50:20.467Z,22.70
2018-09-08T14:52:52.492Z,22.50
2018-09-08T14:55:21.116Z,22.50
2018-09-08T14:57:54.284Z,22.50
2018-09-08T15:00:22.989Z,22.40
2018-09-08T15:02:56.133Z,22.40
2018-09-08T15:05:24.893Z,22.20
2018-09-08T15:07:56.936Z,22.40
2018-09-08T15:10:25.731Z,22.30
2018-09-08T15:12:57.848Z,22.40
2018-09-08T15:15:26.573Z,22.40
2018-09-08T15:18:02.320Z,22.20
2018-09-08T15:20:31.014Z,21.90
2018-09-08T15:23:04.162Z,21.70
2018-09-08T15:25:32.795Z,21.70
2018-09-08T15:28:05.097Z,21.50
2018-09-08T15:30:34.758Z,21.50
2018-09-08T15:33:06.823Z,21.60
2018-09-08T15:35:35.456Z,21.50
2018-09-08T15:38:10.420Z,21.40
2018-09-08T15:40:39.190Z,21.30
2018-09-08T15:43:12.249Z,21.30
2018-09-08T15:45:40.947Z,21.10
2018-09-08T15:48:13.182Z,21.10
2018-09-08T15:50:41.808Z,21.00
2018-09-08T15:53:14.818Z,20.90
2018-09-08T15:55:43.559Z,20.90
2018-09-08T15:58:15.794Z,20.90
2018-09-08T16:00:45.160Z,20.90
2018-09-08T16:03:18.470Z,20.90
2018-09-08T16:05:47.201Z,20.90
2018-09-08T16:08:21.240Z,20.90
2018-09-08T16:10:49.875Z,20.90
2018-09-08T16:13:22.050Z,20.90
2018-09-08T16:15:51.065Z,20.90
2018-09-08T16:18:30.184Z,20.90
2018-09-08T16:20:58.926Z,20.90
2018-09-08T16:23:31.090Z,20.70
2018-09-08T16:25:59.787Z,20.70
2018-09-08T16:28:31.993Z,20.70
2018-09-08T16:31:00.744Z,20.70
2018-09-08T16:33:32.841Z,20.60
2018-09-08T16:36:01.548Z,20.60
2018-09-08T16:38:33.652Z,20.60
2018-09-08T16:41:02.973Z,20.60
2018-09-08T16:43:36.256Z,20.60
2018-09-08T16:46:05.461Z,20.50
2018-09-08T16:48:38.186Z,20.50
2018-09-08T16:51:06.893Z,20.30
2018-09-08T16:53:39.101Z,20.20
2018-09-08T16:56:07.840Z,19.90
2018-09-08T16:58:39.934Z,19.80
2018-09-08T17:01:08.676Z,19.60
2018-09-08T17:03:40.765Z,19.50
2018-09-08T17:06:09.363Z,19.40
2018-09-08T17:08:41.606Z,19.20
2018-09-08T17:11:10.338Z,19.00
2018-09-08T17:13:43.426Z,18.90
2018-09-08T17:16:12.138Z,18.80
2018-09-08T17:18:48.884Z,18.60
2018-09-08T17:21:17.599Z,18.50
2018-09-08T17:23:49.905Z,18.40
2018-09-08T17:26:18.648Z,18.30
2018-09-08T17:28:52.141Z,18.20
2018-09-08T17:31:20.823Z,18.00
2018-09-08T17:33:53.294Z,17.90
2018-09-08T17:36:21.984Z,17.70
2018-09-08T17:38:54.142Z,17.60
2018-09-08T17:41:23.945Z,17.50
2018-09-08T17:43:56.003Z,17.40
2018-09-08T17:46:24.900Z,17.30
2018-09-08T17:48:56.952Z,17.20
2018-09-08T17:51:26.519Z,17.00
2018-09-08T17:53:59.552Z,16.90
2018-09-08T17:56:28.161Z,16.80
2018-09-08T17:59:01.473Z,16.70
2018-09-08T18:01:30.004Z,16.50
2018-09-08T18:04:02.129Z,16.40
2018-09-08T18:06:30.663Z,16.30
2018-09-08T18:08:59.276Z,16.20
2018-09-08T18:11:30.782Z,16.10
2018-09-08T18:13:59.274Z,16.00
2018-09-08T18:16:31.609Z,16.00
2018-09-08T18:19:03.399Z,15.90
2018-09-08T18:21:35.232Z,15.80
2018-09-08T18:24:22.829Z,15.70
2018-09-08T18:26:55.139Z,15.60
2018-09-08T18:29:24.382Z,15.60
2018-09-08T18:31:56.926Z,15.50
2018-09-08T18:34:25.518Z,15.50
2018-09-08T18:37:01.809Z,15.50
2018-09-08T18:39:30.368Z,15.30
2018-09-08T18:42:03.264Z,15.20
2018-09-08T18:44:31.807Z,15.10
2018-09-08T18:47:00.344Z,15.00
2018-09-08T18:49:31.794Z,15.00
2018-09-08T18:52:00.375Z,14.90
2018-09-08T18:54:28.945Z,14.90
2018-09-08T18:57:01.332Z,14.90
2018-09-08T18:59:29.875Z,14.80
2018-09-08T19:02:02.214Z,14.70
2018-09-08T19:04:30.798Z,14.70
2018-09-08T19:07:03.068Z,14.60
2018-09-08T19:09:31.637Z,14.50
2018-09-08T19:12:00.183Z,14.40
2018-09-08T19:14:37.136Z,14.40
2018-09-08T19:17:06.089Z,14.40
2018-09-08T19:19:42.575Z,14.40
2018-09-08T19:22:11.110Z,14.40
2018-09-08T19:24:47.015Z,14.30
2018-09-08T19:27:15.579Z,14.20
2018-09-08T19:29:52.397Z,14.10
2018-09-08T19:32:21.044Z,14.10
2018-09-08T19:34:58.772Z,14.00
2018-09-08T19:37:27.327Z,14.00
2018-09-08T19:39:55.864Z,14.00
2018-09-08T19:42:28.496Z,13.90
2018-09-08T19:44:57.334Z,13.80
2018-09-08T19:47:35.473Z,13.80
2018-09-08T19:50:04.326Z,13.70
2018-09-08T19:52:41.879Z,13.70
2018-09-08T19:55:10.932Z,13.70
2018-09-08T19:57:48.080Z,13.70
2018-09-08T20:00:16.859Z,13.60
2018-09-08T20:02:49.190Z,13.60
2018-09-08T20:05:18.064Z,13.50
2018-09-08T20:07:49.985Z,13.40
2018-09-08T20:10:18.657Z,13.40
2018-09-08T20:12:50.806Z,13.30
2018-09-08T20:15:19.585Z,13.30
2018-09-08T20:17:52.570Z,13.30
2018-09-08T20:20:24.402Z,13.30
2018-09-08T20:22:56.109Z,13.20
2018-09-08T20:25:24.888Z,13.10
2018-09-08T20:27:57.057Z,13.10
2018-09-08T20:30:25.767Z,13.10
2018-09-08T20:32:57.926Z,13.00
2018-09-08T20:35:27.385Z,13.00
2018-09-08T20:38:00.638Z,12.90
2018-09-08T20:40:30.370Z,12.90
2018-09-08T20:43:03.283Z,12.90
2018-09-08T20:45:32.149Z,12.80
2018-09-08T20:48:04.200Z,12.80
2018-09-08T20:50:32.918Z,12.80
2018-09-08T20:53:05.070Z,12.70
2018-09-08T20:55:33.812Z,12.70
2018-09-08T20:58:05.945Z,12.70
2018-09-08T21:00:34.760Z,12.60
2018-09-08T21:03:06.804Z,12.60
2018-09-08T21:05:35.580Z,12.70
2018-09-08T21:08:08.645Z,12.80
2018-09-08T21:10:37.274Z,12.80
2018-09-08T21:13:10.500Z,12.70
2018-09-08T21:15:39.189Z,12.70
2018-09-08T21:18:14.976Z,12.70
2018-09-08T21:20:47.652Z,12.80
2018-09-08T21:23:20.365Z,12.80
2018-09-08T21:25:49.084Z,12.80
2018-09-08T21:28:21.098Z,12.80
2018-09-08T21:30:49.848Z,12.80
2018-09-08T21:33:21.966Z,12.80
2018-09-08T21:35:50.533Z,12.70
2018-09-08T21:38:19.068Z,12.70
2018-09-08T21:40:51.603Z,12.70
2018-09-08T21:43:20.307Z,12.80
2018-09-08T21:45:53.384Z,12.80
2018-09-08T21:48:22.012Z,12.80
2018-09-08T21:50:54.249Z,12.80
2018-09-08T21:53:22.894Z,12.70
2018-09-08T21:55:55.126Z,12.70
2018-09-08T21:58:23.750Z,12.70
2018-09-08T22:01:04.971Z,12.80
2018-09-08T22:03:33.525Z,12.80
2018-09-08T22:06:05.844Z,12.80
2018-09-08T22:08:37.807Z,12.80
2018-09-08T22:11:11.316Z,12.80
2018-09-08T22:13:39.952Z,12.80
2018-09-08T22:16:12.189Z,12.80
2018-09-08T22:18:40.875Z,12.90
2018-09-08T22:21:15.820Z,12.90
2018-09-08T22:23:44.400Z,12.90
2018-09-08T22:26:17.611Z,12.80
2018-09-08T22:28:46.331Z,12.90
2018-09-08T22:31:19.330Z,12.90
2018-09-08T22:33:48.061Z,12.80
2018-09-08T22:36:20.248Z,12.80
2018-09-08T22:38:48.867Z,12.70
2018-09-08T22:41:25.077Z,12.70
2018-09-08T22:43:53.672Z,12.60
2018-09-08T22:46:26.533Z,12.60
2018-09-08T22:48:55.225Z,12.60
2018-09-08T22:51:28.374Z,12.50
2018-09-08T22:53:57.000Z,12.40
2018-09-08T22:56:29.143Z,12.40
2018-09-08T22:58:58.169Z,12.40
2018-09-08T23:01:30.176Z,12.30
2018-09-08T23:03:58.825Z,12.20
2018-09-08T23:06:30.913Z,12.10
2018-09-08T23:08:59.491Z,12.10
2018-09-08T23:11:28.811Z,12.00
2018-09-08T23:14:01.363Z,11.90
2018-09-08T23:16:30.033Z,11.90
2018-09-08T23:19:02.205Z,11.80
2018-09-08T23:21:34.957Z,11.80
2018-09-08T23:24:07.684Z,11.80
2018-09-08T23:26:36.332Z,11.80
2018-09-08T23:29:09.541Z,11.80
2018-09-08T23:31:38.213Z,11.80
2018-09-08T23:34:10.274Z,11.80
2018-09-08T23:36:38.876Z,11.80
2018-09-08T23:39:11.285Z,11.90
2018-09-08T23:41:39.871Z,11.90
2018-09-08T23:44:16.105Z,11.90
2018-09-08T23:46:44.869Z,11.80
2018-09-08T23:49:17.434Z,11.80
2018-09-08T23:51:46.080Z,11.80
2018-09-08T23:54:22.009Z,11.90
2018-09-08T23:56:50.589Z,11.80
2018-09-08T23:59:22.926Z,11.80
